createdAt,value
2022-08-25T00:00:29.503Z,53.34
2022-08-25T00:02:57.985Z,52.95
2022-08-25T00:05:28.175Z,52.93
2022-08-25T00:07:58.235Z,52.93
2022-08-25T00:10:26.303Z,52.94
2022-08-25T00:12:55.612Z,52.81
2022-08-25T00:15:24.214Z,52.85
2022-08-25T00:17:52.211Z,52.98
2022-08-25T00:20:20.403Z,53.19
2022-08-25T00:22:48.996Z,54.02
2022-08-25T00:25:17.130Z,54.25
2022-08-25T00:27:45.822Z,54.31
2022-08-25T00:30:16.813Z,53.93
2022-08-25T00:32:51.447Z,53.88
2022-08-25T00:35:24.475Z,53.67
2022-08-25T00:37:52.502Z,53.91
2022-08-25T00:40:20.727Z,54.44
2022-08-25T00:42:48.923Z,54.24
2022-08-25T00:45:18.843Z,54.37
2022-08-25T00:47:47.005Z,54.22
2022-08-25T00:50:15.728Z,54.14
2022-08-25T00:52:47.463Z,53.99
2022-08-25T00:55:19.927Z,53.77
2022-08-25T00:57:53.403Z,53.59
2022-08-25T01:00:26.232Z,53.40
2022-08-25T01:02:54.572Z,54.07
2022-08-25T01:05:23.537Z,53.97
2022-08-25T01:07:52.489Z,54.15
2022-08-25T01:10:27.850Z,54.63
2022-08-25T01:13:01.146Z,54.81
2022-08-25T01:15:31.377Z,55.50
2022-08-25T01:18:01.048Z,55.24
2022-08-25T01:20:32.658Z,55.61
2022-08-25T01:23:02.517Z,55.60
2022-08-25T01:25:40.568Z,56.21
2022-08-25T01:28:08.466Z,58.06
2022-08-25T01:30:37.388Z,56.61
2022-08-25T01:33:07.365Z,56.42
2022-08-25T01:35:36.350Z,56.78
2022-08-25T01:38:09.439Z,56.68
2022-08-25T01:40:40.591Z,57.03
2022-08-25T01:43:17.370Z,56.03
2022-08-25T01:45:48.023Z,56.65
2022-08-25T01:48:16.990Z,56.56
2022-08-25T01:50:47.715Z,56.52
2022-08-25T01:53:23.953Z,57.89
2022-08-25T01:56:01.773Z,59.28
2022-08-25T01:58:32.748Z,57.97
2022-08-25T02:01:02.665Z,57.60
2022-08-25T02:03:32.489Z,57.64
2022-08-25T02:06:01.833Z,58.05
2022-08-25T02:08:34.626Z,58.16
2022-08-25T02:11:02.667Z,57.85
2022-08-25T02:13:31.319Z,57.74
2022-08-25T02:16:02.398Z,57.81
2022-08-25T02:18:31.493Z,58.36
2022-08-25T02:20:59.406Z,58.17
2022-08-25T02:23:28.258Z,57.86
2022-08-25T02:25:58.146Z,57.44
2022-08-25T02:28:26.457Z,57.78
2022-08-25T02:31:00.151Z,57.99
2022-08-25T02:33:29.559Z,58.12
2022-08-25T02:35:59.573Z,57.74
2022-08-25T02:38:28.580Z,57.78
2022-08-25T02:40:59.841Z,57.70
2022-08-25T02:43:29.133Z,57.60
2022-08-25T02:45:57.276Z,57.84
2022-08-25T02:48:25.273Z,57.80
2022-08-25T02:50:54.196Z,57.42
2022-08-25T02:53:23.371Z,57.09
2022-08-25T02:55:51.258Z,57.09
2022-08-25T02:58:21.055Z,57.04
2022-08-25T03:00:49.938Z,57.35
2022-08-25T03:03:18.349Z,57.51
2022-08-25T03:05:46.972Z,58.24
2022-08-25T03:08:15.310Z,58.49
2022-08-25T03:10:43.316Z,58.34
2022-08-25T03:13:11.688Z,58.53
2022-08-25T03:15:42.517Z,58.46
2022-08-25T03:18:12.546Z,58.51
2022-08-25T03:20:43.108Z,58.58
2022-08-25T03:23:11.260Z,59.05
2022-08-25T03:26:00.720Z,59.02
2022-08-25T03:28:33.127Z,59.09
2022-08-25T03:31:03.048Z,59.22
2022-08-25T03:33:32.314Z,59.37
2022-08-25T03:36:00.525Z,59.02
2022-08-25T03:38:29.220Z,58.98
2022-08-25T03:40:57.590Z,59.35
2022-08-25T03:43:25.968Z,59.58
2022-08-25T03:45:57.100Z,59.34
2022-08-25T03:48:26.744Z,59.04
2022-08-25T03:50:55.204Z,58.68
2022-08-25T03:53:23.926Z,58.51
2022-08-25T03:55:52.313Z,58.37
2022-08-25T03:58:20.237Z,58.31
2022-08-25T04:00:48.130Z,58.24
2022-08-25T04:03:16.320Z,58.21
2022-08-25T04:05:45.993Z,58.30
2022-08-25T04:08:14.085Z,58.47
2022-08-25T04:10:42.394Z,59.02
2022-08-25T04:13:10.512Z,58.55
2022-08-25T04:15:38.511Z,58.48
2022-08-25T04:18:06.972Z,58.23
2022-08-25T04:20:34.967Z,58.06
2022-08-25T04:23:04.300Z,58.13
2022-08-25T04:25:32.464Z,58.16
2022-08-25T04:28:00.449Z,58.02
2022-08-25T04:30:28.406Z,57.85
2022-08-25T04:32:56.597Z,57.78
2022-08-25T04:35:24.873Z,58.38
2022-08-25T04:37:52.863Z,58.55
2022-08-25T04:40:28.978Z,58.60
2022-08-25T04:42:57.318Z,58.17
2022-08-25T04:45:25.499Z,58.48
2022-08-25T04:47:55.139Z,57.92
2022-08-25T04:50:23.262Z,58.06
2022-08-25T04:52:51.351Z,58.26
2022-08-25T04:55:20.181Z,58.81
2022-08-25T04:57:49.568Z,58.49
2022-08-25T05:00:18.672Z,58.36
2022-08-25T05:02:46.719Z,58.93
2022-08-25T05:05:14.829Z,59.55
2022-08-25T05:07:43.015Z,59.35
2022-08-25T05:10:11.551Z,59.67
2022-08-25T05:12:39.890Z,59.96
2022-08-25T05:15:28.791Z,60.19
2022-08-25T05:17:57.804Z,60.62
2022-08-25T05:20:27.240Z,60.62
2022-08-25T05:22:55.095Z,60.84
2022-08-25T05:25:23.179Z,61.23
2022-08-25T05:27:51.676Z,61.51
2022-08-25T05:30:21.248Z,61.72
2022-08-25T05:32:49.120Z,61.72
2022-08-25T05:35:17.504Z,62.17
2022-08-25T05:37:45.466Z,61.72
2022-08-25T05:40:13.793Z,62.23
2022-08-25T05:42:41.984Z,62.46
2022-08-25T05:45:10.845Z,62.27
2022-08-25T05:47:49.876Z,62.13
2022-08-25T05:50:18.554Z,62.57
2022-08-25T05:52:49.088Z,63.62
2022-08-25T05:55:17.458Z,64.16
2022-08-25T05:57:45.540Z,64.11
2022-08-25T06:00:14.340Z,64.66
2022-08-25T06:02:46.100Z,64.18
2022-08-25T06:05:17.911Z,65.01
2022-08-25T06:07:47.176Z,65.73
2022-08-25T06:10:15.815Z,63.57
2022-08-25T06:12:45.822Z,63.91
2022-08-25T06:15:15.963Z,63.62
2022-08-25T06:17:44.356Z,63.06
2022-08-25T06:20:16.600Z,63.23
2022-08-25T06:22:45.047Z,63.19
2022-08-25T06:25:15.016Z,63.14
2022-08-25T06:27:43.373Z,63.36
2022-08-25T06:30:15.217Z,62.87
2022-08-25T06:32:45.958Z,62.77
2022-08-25T06:35:17.444Z,63.05
2022-08-25T06:37:45.778Z,62.79
2022-08-25T06:40:15.156Z,62.43
2022-08-25T06:42:43.393Z,61.86
2022-08-25T06:45:11.553Z,61.63
2022-08-25T06:47:39.641Z,61.57
2022-08-25T06:50:08.729Z,60.96
2022-08-25T06:52:38.326Z,60.90
2022-08-25T06:55:07.382Z,60.59
2022-08-25T06:57:35.898Z,61.14
2022-08-25T07:00:05.870Z,60.40
2022-08-25T07:02:35.450Z,60.28
2022-08-25T07:05:04.642Z,59.87
2022-08-25T07:07:43.781Z,59.40
2022-08-25T07:10:14.666Z,59.68
2022-08-25T07:12:47.427Z,59.70
2022-08-25T07:15:20.345Z,59.32
2022-08-25T07:17:49.982Z,59.26
2022-08-25T07:20:19.403Z,59.42
2022-08-25T07:22:48.054Z,59.07
2022-08-25T07:25:18.046Z,59.13
2022-08-25T07:27:46.691Z,58.55
2022-08-25T07:30:15.244Z,58.13
2022-08-25T07:32:43.478Z,57.64
2022-08-25T07:35:19.132Z,57.29
2022-08-25T07:37:49.827Z,56.91
2022-08-25T07:40:22.685Z,56.62
2022-08-25T07:42:53.557Z,56.48
2022-08-25T07:45:30.143Z,56.59
2022-08-25T07:47:59.489Z,56.46
2022-08-25T07:50:31.284Z,56.50
2022-08-25T07:53:00.377Z,56.51
2022-08-25T07:55:30.493Z,56.29
2022-08-25T07:57:59.778Z,55.84
2022-08-25T08:00:29.903Z,55.37
2022-08-25T08:02:58.849Z,55.38
2022-08-25T08:05:28.330Z,55.22
2022-08-25T08:07:57.212Z,55.04
2022-08-25T08:10:48.020Z,54.77
2022-08-25T08:13:18.396Z,53.78
2022-08-25T08:15:48.060Z,53.62
2022-08-25T08:18:16.827Z,53.41
2022-08-25T08:20:47.808Z,53.44
2022-08-25T08:23:17.398Z,52.98
2022-08-25T08:25:45.338Z,52.90
2022-08-25T08:28:14.931Z,52.82
2022-08-25T08:30:53.297Z,52.36
2022-08-25T08:33:24.449Z,52.30
2022-08-25T08:36:05.173Z,51.90
2022-08-25T08:38:33.771Z,51.04
2022-08-25T08:41:30.578Z,51.70
2022-08-25T08:44:11.200Z,50.50
2022-08-25T08:46:48.633Z,50.90
2022-08-25T08:49:26.950Z,51.35
2022-08-25T08:52:01.976Z,50.31
2022-08-25T08:54:36.859Z,49.66
2022-08-25T08:57:09.732Z,50.38
2022-08-25T08:59:48.700Z,50.93
2022-08-25T09:02:39.173Z,49.57
2022-08-25T09:05:17.164Z,49.78
2022-08-25T09:07:49.312Z,50.77
2022-08-25T09:10:25.615Z,50.20
2022-08-25T09:13:04.945Z,50.14
2022-08-25T09:15:58.612Z,47.48
2022-08-25T09:18:32.482Z,48.00
2022-08-25T09:21:09.875Z,49.16
2022-08-25T09:23:55.060Z,48.79
2022-08-25T09:26:32.548Z,47.04
2022-08-25T09:29:06.174Z,46.61
2022-08-25T09:31:38.865Z,48.07
2022-08-25T09:34:08.960Z,48.42
2022-08-25T09:36:37.957Z,48.70
2022-08-25T09:39:06.742Z,48.62
2022-08-25T09:41:51.299Z,48.34
2022-08-25T09:44:26.057Z,46.52
2022-08-25T09:47:02.878Z,47.25
2022-08-25T09:49:40.058Z,45.89
2022-08-25T09:52:25.222Z,46.05
2022-08-25T09:54:54.878Z,46.11
2022-08-25T09:57:34.918Z,47.98
2022-08-25T10:00:16.083Z,46.51
2022-08-25T10:03:06.051Z,46.04
2022-08-25T10:05:38.658Z,47.02
2022-08-25T10:08:14.656Z,46.72
2022-08-25T10:10:47.374Z,45.59
2022-08-25T10:13:23.086Z,47.23
2022-08-25T10:16:05.559Z,46.67
2022-08-25T10:19:01.979Z,44.00
2022-08-25T10:21:29.925Z,44.56
2022-08-25T10:24:01.511Z,46.86
2022-08-25T10:26:37.471Z,47.06
2022-08-25T10:29:15.861Z,45.71
2022-08-25T10:31:51.824Z,45.24
2022-08-25T10:34:38.288Z,45.27
2022-08-25T10:37:22.622Z,43.37
2022-08-25T10:40:03.534Z,43.00
2022-08-25T10:42:37.683Z,43.07
2022-08-25T10:45:35.070Z,43.50
2022-08-25T10:48:35.016Z,42.52
2022-08-25T10:51:20.429Z,42.26
2022-08-25T10:53:57.548Z,43.08
2022-08-25T10:56:30.062Z,43.58
2022-08-25T10:59:24.866Z,44.80
2022-08-25T11:02:14.030Z,41.41
2022-08-25T11:04:48.841Z,42.28
2022-08-25T11:07:26.203Z,43.63
2022-08-25T11:09:58.645Z,42.40
2022-08-25T11:12:32.884Z,43.84
2022-08-25T11:15:08.483Z,43.49
2022-08-25T11:17:43.478Z,43.59
2022-08-25T11:20:26.490Z,42.93
2022-08-25T11:23:09.349Z,42.63
2022-08-25T11:25:43.846Z,42.34
2022-08-25T11:28:15.753Z,43.33
2022-08-25T11:30:44.668Z,43.19
2022-08-25T11:33:17.653Z,43.31
2022-08-25T11:35:53.485Z,42.94
2022-08-25T11:38:41.751Z,41.26
2022-08-25T11:41:21.505Z,40.74
2022-08-25T11:44:15.169Z,41.41
2022-08-25T11:46:55.199Z,40.45
2022-08-25T11:49:46.070Z,40.82
2022-08-25T11:52:45.953Z,39.54
2022-08-25T11:55:23.137Z,39.40
2022-08-25T11:57:54.364Z,39.59
2022-08-25T12:00:48.341Z,42.23
2022-08-25T12:03:50.943Z,39.73
2022-08-25T12:06:26.052Z,38.96
2022-08-25T12:09:20.085Z,41.46
2022-08-25T12:11:55.052Z,37.54
2022-08-25T12:14:44.078Z,39.97
2022-08-25T12:17:26.067Z,39.00
2022-08-25T12:19:57.724Z,39.70
2022-08-25T12:22:51.550Z,41.65
2022-08-25T12:25:33.846Z,39.78
2022-08-25T12:28:10.904Z,40.70
2022-08-25T12:30:50.525Z,41.40
2022-08-25T12:33:32.816Z,41.25
2022-08-25T12:36:03.735Z,40.70
2022-08-25T12:38:42.596Z,41.70
2022-08-25T12:41:14.637Z,41.48
2022-08-25T12:43:47.432Z,41.45
2022-08-25T12:46:37.813Z,40.84
2022-08-25T12:49:14.281Z,38.61
2022-08-25T12:51:54.677Z,39.45
2022-08-25T12:54:38.599Z,39.36
2022-08-25T12:57:25.136Z,40.71
2022-08-25T13:00:06.444Z,39.62
2022-08-25T13:02:58.103Z,40.15
2022-08-25T13:06:05.772Z,39.71
2022-08-25T13:08:53.690Z,38.84
2022-08-25T13:11:30.381Z,39.01
2022-08-25T13:14:08.769Z,40.25
2022-08-25T13:16:39.696Z,38.79
2022-08-25T13:19:08.647Z,40.28
2022-08-25T13:21:38.850Z,40.27
2022-08-25T13:24:10.247Z,40.29
2022-08-25T13:26:48.122Z,39.88
2022-08-25T13:29:20.643Z,39.86
2022-08-25T13:31:57.016Z,39.96
2022-08-25T13:34:34.319Z,38.49
2022-08-25T13:37:24.790Z,39.63
2022-08-25T13:40:07.634Z,38.44
2022-08-25T13:42:42.481Z,39.70
2022-08-25T13:45:16.685Z,39.56
2022-08-25T13:47:48.283Z,37.14
2022-08-25T13:50:35.366Z,38.78
2022-08-25T13:53:06.009Z,36.59
2022-08-25T13:55:50.521Z,37.99
2022-08-25T13:58:24.477Z,37.77
2022-08-25T14:01:22.181Z,37.68
2022-08-25T14:04:19.041Z,34.89
2022-08-25T14:06:47.706Z,36.99
2022-08-25T14:09:27.879Z,38.02
2022-08-25T14:11:58.660Z,36.99
2022-08-25T14:14:35.192Z,38.45
2022-08-25T14:17:21.579Z,36.15
2022-08-25T14:19:58.737Z,37.99
2022-08-25T14:22:27.026Z,37.03
2022-08-25T14:24:56.155Z,37.57
2022-08-25T14:27:24.307Z,37.61
2022-08-25T14:29:53.027Z,37.47
2022-08-25T14:32:21.520Z,37.48
2022-08-25T14:34:49.477Z,37.53
2022-08-25T14:37:21.007Z,37.35
2022-08-25T14:39:54.754Z,36.75
2022-08-25T14:42:25.411Z,37.35
2022-08-25T14:44:54.564Z,37.28
2022-08-25T14:47:24.616Z,37.05
2022-08-25T14:49:52.569Z,37.16
2022-08-25T14:52:26.681Z,37.03
2022-08-25T14:54:54.972Z,36.36
2022-08-25T14:57:23.111Z,36.82
2022-08-25T14:59:52.331Z,36.83
2022-08-25T15:02:22.793Z,36.85
2022-08-25T15:05:02.131Z,36.93
2022-08-25T15:07:50.790Z,36.78
2022-08-25T15:10:21.773Z,36.61
2022-08-25T15:12:53.851Z,36.81
2022-08-25T15:15:26.369Z,36.77
2022-08-25T15:17:55.204Z,36.78
2022-08-25T15:20:26.597Z,36.90
2022-08-25T15:22:55.909Z,36.76
2022-08-25T15:25:24.515Z,37.03
2022-08-25T15:27:52.745Z,37.25
2022-08-25T15:30:20.923Z,36.94
2022-08-25T15:32:59.368Z,36.11
2022-08-25T15:35:29.206Z,35.32
2022-08-25T15:37:58.573Z,34.88
2022-08-25T15:40:27.359Z,34.17
2022-08-25T15:42:55.423Z,34.44
2022-08-25T15:45:24.039Z,34.67
2022-08-25T15:47:53.917Z,34.81
2022-08-25T15:50:26.064Z,34.86
2022-08-25T15:52:54.601Z,34.52
2022-08-25T15:55:23.945Z,34.58
2022-08-25T15:57:52.651Z,34.17
2022-08-25T16:00:22.713Z,33.99
2022-08-25T16:02:52.457Z,34.08
2022-08-25T16:05:25.640Z,33.82
2022-08-25T16:07:54.266Z,33.76
2022-08-25T16:10:22.394Z,33.81
2022-08-25T16:12:51.602Z,33.82
2022-08-25T16:15:23.919Z,33.62
2022-08-25T16:17:52.172Z,33.80
2022-08-25T16:20:20.862Z,33.98
2022-08-25T16:22:51.487Z,33.98
2022-08-25T16:25:19.763Z,33.66
2022-08-25T16:27:48.538Z,33.74
2022-08-25T16:30:18.460Z,34.01
2022-08-25T16:32:46.655Z,34.24
2022-08-25T16:35:14.897Z,34.44
2022-08-25T16:37:42.917Z,34.52
2022-08-25T16:40:14.783Z,35.17
2022-08-25T16:42:43.489Z,35.62
2022-08-25T16:45:12.626Z,36.20
2022-08-25T16:47:42.929Z,36.38
2022-08-25T16:50:11.977Z,36.62
2022-08-25T16:52:58.232Z,36.84
2022-08-25T16:55:39.023Z,37.01
2022-08-25T16:58:12.688Z,37.30
2022-08-25T17:00:44.645Z,37.44
2022-08-25T17:03:14.223Z,37.78
2022-08-25T17:05:44.544Z,37.85
2022-08-25T17:08:31.150Z,38.02
2022-08-25T17:11:08.134Z,38.22
2022-08-25T17:13:37.342Z,38.63
2022-08-25T17:16:05.940Z,38.70
2022-08-25T17:18:35.331Z,38.85
2022-08-25T17:21:08.117Z,38.94
2022-08-25T17:23:37.928Z,39.10
2022-08-25T17:26:13.006Z,39.26
2022-08-25T17:28:43.122Z,39.81
2022-08-25T17:31:13.970Z,39.89
2022-08-25T17:33:43.848Z,40.18
2022-08-25T17:36:16.665Z,40.25
2022-08-25T17:38:45.165Z,40.36
2022-08-25T17:41:15.005Z,40.56
2022-08-25T17:43:44.374Z,40.76
2022-08-25T17:46:13.579Z,40.72
2022-08-25T17:48:46.187Z,40.84
2022-08-25T17:51:15.942Z,41.01
2022-08-25T17:53:44.748Z,41.03
2022-08-25T17:56:18.570Z,41.13
2022-08-25T17:58:47.976Z,41.35
2022-08-25T18:01:17.912Z,41.37
2022-08-25T18:03:47.586Z,41.67
2022-08-25T18:06:16.599Z,42.07
2022-08-25T18:08:51.721Z,42.15
2022-08-25T18:11:23.624Z,42.13
2022-08-25T18:13:53.612Z,42.16
2022-08-25T18:16:22.427Z,42.21
2022-08-25T18:18:52.880Z,42.39
2022-08-25T18:21:22.440Z,42.65
2022-08-25T18:23:51.016Z,42.59
2022-08-25T18:26:24.785Z,42.81
2022-08-25T18:28:53.832Z,43.12
2022-08-25T18:31:21.977Z,43.08
2022-08-25T18:33:51.256Z,43.32
2022-08-25T18:36:21.351Z,43.45
2022-08-25T18:39:07.516Z,43.95
2022-08-25T18:41:39.296Z,44.20
2022-08-25T18:44:08.141Z,44.09
2022-08-25T18:46:39.961Z,44.10
2022-08-25T18:49:09.902Z,44.10
2022-08-25T18:51:38.595Z,44.25
2022-08-25T18:54:07.182Z,44.40
2022-08-25T18:56:51.082Z,44.35
2022-08-25T18:59:20.284Z,44.63
2022-08-25T19:01:53.931Z,44.58
2022-08-25T19:04:28.565Z,44.74
2022-08-25T19:07:00.951Z,44.74
2022-08-25T19:09:29.699Z,44.76
2022-08-25T19:11:59.139Z,44.83
2022-08-25T19:14:28.204Z,44.90
2022-08-25T19:16:57.891Z,44.94
2022-08-25T19:19:27.518Z,45.05
2022-08-25T19:21:55.804Z,45.17
2022-08-25T19:24:23.731Z,45.11
2022-08-25T19:26:54.722Z,45.22
2022-08-25T19:29:23.948Z,45.30
2022-08-25T19:31:53.265Z,45.44
2022-08-25T19:34:28.332Z,45.57
2022-08-25T19:37:02.700Z,45.96
2022-08-25T19:39:33.204Z,45.91
2022-08-25T19:42:03.182Z,45.80
2022-08-25T19:44:31.520Z,45.95
2022-08-25T19:46:59.626Z,46.09
2022-08-25T19:49:31.691Z,46.10
2022-08-25T19:52:04.668Z,46.24
2022-08-25T19:54:35.486Z,46.54
2022-08-25T19:57:05.108Z,46.45
2022-08-25T19:59:43.135Z,46.47
2022-08-25T20:02:15.527Z,46.64
2022-08-25T20:04:45.704Z,46.76
2022-08-25T20:07:21.194Z,46.74
2022-08-25T20:09:49.742Z,47.28
2022-08-25T20:12:20.244Z,46.97
2022-08-25T20:14:49.287Z,47.32
2022-08-25T20:17:23.766Z,47.34
2022-08-25T20:19:55.825Z,47.52
2022-08-25T20:22:28.035Z,47.62
2022-08-25T20:24:57.804Z,48.41
2022-08-25T20:27:32.009Z,47.92
2022-08-25T20:30:03.021Z,48.00
2022-08-25T20:32:33.545Z,48.00
2022-08-25T20:35:01.876Z,48.14
2022-08-25T20:37:31.218Z,48.23
2022-08-25T20:40:02.243Z,48.63
2022-08-25T20:42:30.462Z,48.47
2022-08-25T20:44:59.999Z,48.46
2022-08-25T20:47:29.886Z,48.54
2022-08-25T20:50:02.154Z,48.45
2022-08-25T20:52:36.360Z,48.70
2022-08-25T20:55:09.063Z,48.72
2022-08-25T20:57:37.969Z,48.70
2022-08-25T21:00:07.924Z,48.92
2022-08-25T21:02:36.008Z,49.12
2022-08-25T21:05:04.981Z,49.29
2022-08-25T21:07:32.959Z,49.28
2022-08-25T21:10:07.333Z,49.46
2022-08-25T21:12:39.074Z,49.87
2022-08-25T21:15:08.506Z,49.65
2022-08-25T21:17:36.585Z,49.79
2022-08-25T21:20:05.412Z,49.88
2022-08-25T21:22:34.488Z,49.97
2022-08-25T21:25:02.876Z,50.01
2022-08-25T21:27:32.843Z,50.10
2022-08-25T21:30:00.915Z,50.06
2022-08-25T21:32:28.852Z,50.05
2022-08-25T21:34:57.861Z,50.22
2022-08-25T21:37:27.142Z,50.34
2022-08-25T21:39:55.296Z,50.55
2022-08-25T21:42:25.087Z,50.60
2022-08-25T21:44:54.646Z,50.63
2022-08-25T21:47:23.151Z,50.90
2022-08-25T21:49:51.833Z,50.98
2022-08-25T21:52:20.892Z,51.18
2022-08-25T21:54:48.982Z,51.21
2022-08-25T21:57:18.042Z,51.04
2022-08-25T21:59:47.168Z,51.54
2022-08-25T22:02:21.900Z,51.61
2022-08-25T22:04:53.415Z,51.96
2022-08-25T22:07:22.586Z,51.98
2022-08-25T22:09:54.025Z,51.92
2022-08-25T22:12:22.316Z,52.01
2022-08-25T22:14:53.604Z,52.04
2022-08-25T22:17:24.242Z,51.99
2022-08-25T22:19:53.908Z,52.06
2022-08-25T22:22:22.820Z,52.09
2022-08-25T22:24:53.006Z,52.00
2022-08-25T22:27:23.341Z,52.02
2022-08-25T22:29:52.743Z,52.17
2022-08-25T22:32:21.171Z,52.33
2022-08-25T22:34:51.008Z,52.37
2022-08-25T22:37:19.347Z,52.40
2022-08-25T22:39:47.468Z,52.38
2022-08-25T22:42:16.632Z,52.43
2022-08-25T22:44:45.355Z,52.28
2022-08-25T22:47:13.722Z,52.49
2022-08-25T22:49:41.794Z,52.42
2022-08-25T22:52:13.105Z,52.39
2022-08-25T22:54:42.551Z,52.46
2022-08-25T22:57:11.785Z,52.42
2022-08-25T22:59:39.938Z,52.42
2022-08-25T23:02:08.739Z,52.42
2022-08-25T23:04:41.541Z,52.45
2022-08-25T23:07:12.969Z,52.53
2022-08-25T23:09:41.547Z,52.59
2022-08-25T23:12:12.128Z,52.56
2022-08-25T23:14:42.034Z,52.73
2022-08-25T23:17:12.847Z,52.62
2022-08-25T23:19:41.632Z,52.64
2022-08-25T23:22:13.491Z,52.64
2022-08-25T23:24:47.835Z,52.65
2022-08-25T23:27:18.967Z,52.77
2022-08-25T23:29:50.216Z,52.82
2022-08-25T23:32:19.365Z,52.67
2022-08-25T23:34:47.905Z,52.69
2022-08-25T23:37:18.704Z,52.65
2022-08-25T23:39:50.030Z,52.83
2022-08-25T23:42:20.109Z,53.07
2022-08-25T23:44:49.128Z,53.33
2022-08-25T23:47:18.457Z,53.52
2022-08-25T23:49:48.092Z,53.85
2022-08-25T23:52:17.484Z,54.44
2022-08-25T23:54:46.274Z,54.69
2022-08-25T23:57:15.740Z,54.74
2022-08-25T23:59:43.726Z,54.78
